Time;durP1;ratioP1;P1;durP2;ratioP2;P2;SDS_P1;SDS_P2;PMS_P1;PMS_P2;Temp;Humidity;BMP_temperature;BMP_pressure;BME280_temperature;BME280_humidity;BME280_pressure;Samples;Min_cycle;Max_cycle;Signal;HPM_P1;HPM_P2
2023/12/30 00:00:28;;;;;;;2.00;1.90;;;;;;;9.27;70.08;97868.72;5045851;28;20237;-80
2023/12/30 00:02:55;;;;;;;1.98;1.77;;;;;;;9.33;70.17;97867.94;5045951;28;20237;-79
2023/12/30 00:05:23;;;;;;;1.90;1.80;;;;;;;9.27;69.85;97864.16;5028301;28;20220;-81
2023/12/30 00:07:50;;;;;;;2.67;1.70;;;;;;;9.32;69.98;97867.09;5029898;28;20200;-80
2023/12/30 00:10:20;;;;;;;2.65;2.45;;;;;;;9.39;69.70;97876.09;5043585;28;20213;-79
2023/12/30 00:12:48;;;;;;;2.03;1.80;;;;;;;9.45;69.31;97871.72;5028395;28;20252;-80
2023/12/30 00:15:16;;;;;;;1.77;1.67;;;;;;;9.45;69.31;97871.72;5047662;28;20235;-80
2023/12/30 00:17:45;;;;;;;1.90;1.80;;;;;;;9.49;69.33;97872.16;5043462;28;20629;-80
2023/12/30 00:20:12;;;;;;;1.90;1.63;;;;;;;9.50;69.31;97863.03;5048198;28;20217;-80
2023/12/30 00:22:38;;;;;;;2.22;2.03;;;;;;;9.53;69.17;97868.88;5044834;28;20689;-80
2023/12/30 00:25:07;;;;;;;2.00;1.80;;;;;;;9.55;69.26;97865.97;5047174;28;20214;-79
2023/12/30 00:27:33;;;;;;;2.10;1.88;;;;;;;9.59;69.17;97859.13;5044136;28;20198;-80
2023/12/30 00:30:00;;;;;;;1.95;1.70;;;;;;;9.57;69.14;97864.75;5024342;28;20642;-80
2023/12/30 00:32:27;;;;;;;2.22;2.03;;;;;;;9.59;68.84;97867.25;5048272;28;20292;-80
2023/12/30 00:34:57;;;;;;;2.00;1.90;;;;;;;9.52;69.11;97860.97;5049425;28;20237;-79
2023/12/30 00:37:23;;;;;;;1.80;1.70;;;;;;;9.57;69.06;97862.03;5046361;28;20312;-80
2023/12/30 00:39:50;;;;;;;2.30;1.88;;;;;;;9.56;69.04;97862.25;5045289;28;20343;-80
2023/12/30 00:42:17;;;;;;;1.85;1.73;;;;;;;9.60;68.88;97866.22;5063919;28;20212;-80
2023/12/30 00:44:43;;;;;;;2.73;1.80;;;;;;;9.59;68.86;97867.25;5043829;28;20269;-79
2023/12/30 00:47:11;;;;;;;1.98;1.88;;;;;;;9.54;68.99;97861.59;5044582;28;20375;-80
2023/12/30 00:49:38;;;;;;;2.00;1.90;;;;;;;9.48;69.49;97865.09;5047463;28;20197;-80
2023/12/30 00:52:07;;;;;;;2.10;2.00;;;;;;;9.51;69.28;97875.50;5050866;28;20214;-80
2023/12/30 00:54:33;;;;;;;2.30;2.10;;;;;;;9.37;70.23;97851.16;5044821;28;20233;-80
2023/12/30 00:57:01;;;;;;;2.35;1.77;;;;;;;9.38;71.01;97866.31;5045548;28;20205;-79
2023/12/30 00:59:28;;;;;;;2.05;1.88;;;;;;;9.18;72.32;97865.34;5044010;28;20692;-79
2023/12/30 01:01:54;;;;;;;2.45;1.90;;;;;;;9.21;72.63;97881.16;5027027;28;20248;-80
2023/12/30 01:04:22;;;;;;;2.05;1.90;;;;;;;9.20;73.20;97876.78;5036827;28;20210;-80
2023/12/30 01:06:51;;;;;;;2.55;2.35;;;;;;;9.03;73.69;97859.22;5035355;28;20559;-80
2023/12/30 01:09:19;;;;;;;2.22;2.03;;;;;;;8.99;75.35;97874.97;5022772;28;20602;-81
2023/12/30 01:11:46;;;;;;;2.20;2.00;;;;;;;8.74;76.00;97862.94;5041132;28;20290;-80
2023/12/30 01:14:14;;;;;;;2.50;2.30;;;;;;;8.84;76.38;97871.53;5039046;28;20225;-80
2023/12/30 01:16:41;;;;;;;2.42;2.22;;;;;;;8.63;77.07;97885.88;5038612;28;20212;-80
2023/12/30 01:19:08;;;;;;;2.40;2.20;;;;;;;8.62;77.23;97907.66;5039285;28;20587;-80
2023/12/30 01:21:39;;;;;;;2.20;2.10;;;;;;;8.66;77.16;97908.94;5037283;28;20228;-80
2023/12/30 01:24:07;;;;;;;2.53;2.33;;;;;;;8.61;77.69;97901.44;5036789;28;20205;-80
2023/12/30 01:26:38;;;;;;;2.35;2.15;;;;;;;8.55;77.66;97894.09;5035877;28;20237;-80
2023/12/30 01:29:05;;;;;;;2.60;2.40;;;;;;;8.46;79.34;97908.72;5039190;28;20207;-80
2023/12/30 01:31:34;;;;;;;2.35;2.15;;;;;;;8.35;80.80;97909.25;5036508;28;20202;-80
2023/12/30 01:34:00;;;;;;;2.30;2.10;;;;;;;8.29;80.01;97924.31;5020218;28;20198;-79
2023/12/30 01:36:27;;;;;;;2.45;2.03;;;;;;;8.27;81.53;97920.97;5037666;28;20201;-79
2023/12/30 01:38:54;;;;;;;2.40;2.20;;;;;;;8.20;82.29;97928.13;5024693;28;20307;-79
2023/12/30 01:41:21;;;;;;;2.55;2.30;;;;;;;8.15;82.96;97918.94;5035392;28;20261;-80
2023/12/30 01:43:53;;;;;;;2.80;2.25;;;;;;;8.11;83.00;97920.38;5039743;28;20201;-79
2023/12/30 01:46:19;;;;;;;2.40;2.20;;;;;;;8.15;82.61;97922.47;5046397;28;20210;-79
2023/12/30 01:48:46;;;;;;;2.05;1.95;;;;;;;8.11;83.18;97929.28;5037428;28;20206;-79
2023/12/30 01:51:13;;;;;;;3.65;2.50;;;;;;;7.97;84.08;97933.66;5025789;28;20225;-79
2023/12/30 01:53:40;;;;;;;2.35;2.15;;;;;;;8.01;84.19;97926.03;5024864;28;20267;-80
2023/12/30 01:56:07;;;;;;;2.38;2.17;;;;;;;8.11;83.70;97923.06;5040531;28;20292;-79
2023/12/30 01:58:35;;;;;;;3.38;2.55;;;;;;;8.18;83.92;97932.03;5022364;28;20647;-79
2023/12/30 02:01:04;;;;;;;3.10;2.28;;;;;;;8.11;83.42;97937.38;5021417;28;20265;-79
2023/12/30 02:03:30;;;;;;;2.60;2.30;;;;;;;8.19;83.44;97944.50;5039473;28;20193;-79
2023/12/30 02:05:57;;;;;;;2.30;2.10;;;;;;;8.15;83.52;97944.03;5022036;28;20288;-79
2023/12/30 02:08:24;;;;;;;2.30;2.10;;;;;;;8.19;83.30;97947.19;5022266;28;20288;-78
2023/12/30 02:10:51;;;;;;;2.30;2.10;;;;;;;8.22;83.01;97947.66;5021374;28;20295;-79
2023/12/30 02:13:18;;;;;;;2.55;2.35;;;;;;;8.25;82.95;97944.56;5038646;28;20243;-79
2023/12/30 02:15:46;;;;;;;2.53;2.33;;;;;;;8.31;82.76;97953.78;5039588;28;20598;-79
2023/12/30 02:18:16;;;;;;;2.72;2.53;;;;;;;8.23;83.42;97956.56;5046026;28;20225;-79
2023/12/30 02:20:43;;;;;;;2.55;2.33;;;;;;;8.23;83.62;97956.56;5058120;28;20236;-79
2023/12/30 02:23:11;;;;;;;3.13;2.10;;;;;;;8.19;83.95;97955.28;5041946;28;20244;-79
2023/12/30 02:25:38;;;;;;;2.60;2.25;;;;;;;8.18;83.57;97964.38;5046735;28;20345;-79
2023/12/30 02:28:05;;;;;;;2.20;2.10;;;;;;;8.22;83.23;97971.06;5037425;28;20275;-79
2023/12/30 02:30:32;;;;;;;2.60;2.22;;;;;;;8.20;83.02;97957.78;5027559;28;20891;-79
2023/12/30 02:32:58;;;;;;;3.05;2.30;;;;;;;8.17;84.05;97966.25;5036316;28;20644;-80
2023/12/30 02:35:25;;;;;;;4.93;2.40;;;;;;;8.15;84.56;97973.69;5053676;28;20817;-80
2023/12/30 02:37:52;;;;;;;2.60;2.40;;;;;;;8.04;85.46;97963.41;5032646;28;20193;-80
2023/12/30 02:40:20;;;;;;;2.85;2.47;;;;;;;7.99;87.30;97968.50;5036017;28;20210;-80
2023/12/30 02:42:46;;;;;;;3.38;2.60;;;;;;;7.89;87.78;97970.66;4994529;28;20206;-80
2023/12/30 02:45:13;;;;;;;3.23;2.57;;;;;;;7.87;87.86;97959.22;5035981;28;20205;-80
2023/12/30 02:47:41;;;;;;;3.10;2.80;;;;;;;7.86;87.90;97965.63;5037387;28;20233;-80
2023/12/30 02:50:09;;;;;;;2.90;2.55;;;;;;;7.79;88.20;97965.56;5023889;28;20308;-80
2023/12/30 02:52:37;;;;;;;2.85;2.65;;;;;;;7.63;88.75;97963.03;5039740;28;20197;-80
2023/12/30 02:55:06;;;;;;;2.90;2.70;;;;;;;7.68;88.54;97974.94;5039900;28;20722;-80
2023/12/30 02:57:34;;;;;;;3.10;2.80;;;;;;;7.79;88.54;97981.72;5042994;28;20292;-81
2023/12/30 03:00:01;;;;;;;2.92;2.30;;;;;;;7.73;89.11;97987.84;5039941;28;20245;-81
2023/12/30 03:02:28;;;;;;;2.72;2.53;;;;;;;7.75;89.04;97991.22;5043037;28;20286;-80
2023/12/30 03:04:54;;;;;;;3.63;2.40;;;;;;;7.79;89.37;97992.50;5036835;28;20205;-81
2023/12/30 03:07:21;;;;;;;3.20;2.90;;;;;;;7.72;89.83;97999.66;5021929;28;20209;-81
2023/12/30 03:09:48;;;;;;;4.90;2.72;;;;;;;7.76;90.09;97995.56;5041546;28;20711;-80
2023/12/30 03:12:16;;;;;;;3.25;2.65;;;;;;;7.73;90.66;97994.09;5038440;28;20198;-81
2023/12/30 03:14:45;;;;;;;3.03;2.83;;;;;;;7.75;90.17;97993.91;5025329;28;20220;-81
2023/12/30 03:17:12;;;;;;;3.22;2.58;;;;;;;7.77;90.18;97999.09;5038828;28;20662;-80
2023/12/30 03:19:40;;;;;;;2.72;2.53;;;;;;;7.76;90.41;98003.66;5041662;28;20316;-80
2023/12/30 03:22:07;;;;;;;3.10;2.90;;;;;;;7.90;89.76;97999.28;5040609;28;20209;-81
2023/12/30 03:24:34;;;;;;;4.07;2.70;;;;;;;7.83;90.39;98007.25;5021119;28;20212;-81
2023/12/30 03:27:01;;;;;;;4.05;3.00;;;;;;;7.86;90.12;98017.66;5040017;28;20289;-80
2023/12/30 03:29:27;;;;;;;2.83;2.60;;;;;;;7.78;90.20;98007.00;5037976;28;20573;-81
2023/12/30 03:31:55;;;;;;;2.33;2.13;;;;;;;7.75;89.53;98008.19;5041014;28;20276;-80
2023/12/30 03:34:23;;;;;;;3.50;2.17;;;;;;;7.60;90.87;98009.19;5037987;28;20209;-80
2023/12/30 03:36:51;;;;;;;2.50;2.30;;;;;;;7.62;90.88;98009.84;5023167;28;20713;-80
2023/12/30 03:39:18;;;;;;;2.50;2.30;;;;;;;7.65;90.53;98006.78;5041080;28;20312;-80
2023/12/30 03:41:45;;;;;;;3.17;2.65;;;;;;;7.65;90.10;98006.78;5040198;28;20301;-80
2023/12/30 03:44:11;;;;;;;2.05;1.85;;;;;;;7.59;90.44;98002.13;5024180;28;20208;-80
2023/12/30 03:46:40;;;;;;;2.35;2.10;;;;;;;7.65;90.01;97996.84;5037234;28;20267;-80
2023/12/30 03:49:09;;;;;;;3.88;2.40;;;;;;;7.52;90.46;97995.81;5056899;28;20210;-80
2023/12/30 03:51:36;;;;;;;2.47;1.90;;;;;;;7.64;90.05;97994.34;5037733;28;20317;-80
2023/12/30 03:54:03;;;;;;;1.85;1.75;;;;;;;7.62;90.41;98002.59;5034911;28;20232;-80
2023/12/30 03:56:29;;;;;;;2.58;2.22;;;;;;;7.63;90.28;98003.44;5024169;28;20235;-80
2023/12/30 03:58:59;;;;;;;1.98;1.88;;;;;;;7.74;89.94;98003.84;5038801;28;20193;-80
2023/12/30 04:01:26;;;;;;;2.40;2.03;;;;;;;7.63;90.79;98006.97;5039056;28;20209;-80
2023/12/30 04:03:55;;;;;;;2.53;1.90;;;;;;;7.68;90.07;98001.03;5038461;28;20301;-80
2023/12/30 04:06:23;;;;;;;3.70;1.80;;;;;;;7.56;90.83;97991.72;5025240;28;20600;-80
2023/12/30 04:08:50;;;;;;;3.35;1.90;;;;;;;7.65;89.84;97998.72;5038541;28;20723;-80
2023/12/30 04:11:16;;;;;;;2.47;2.13;;;;;;;7.59;90.50;97999.44;5035681;28;20205;-80
2023/12/30 04:13:43;;;;;;;2.15;1.88;;;;;;;7.48;91.16;97989.13;5046036;28;20232;-77
2023/12/30 04:16:10;;;;;;;2.70;1.85;;;;;;;7.51;91.36;98004.91;5049763;28;20237;-79
2023/12/30 04:18:36;;;;;;;1.52;1.40;;;;;;;7.50;90.98;98000.53;5037639;28;20270;-79
2023/12/30 04:21:03;;;;;;;2.88;1.55;;;;;;;7.58;90.96;98001.31;5048466;28;20329;-79
2023/12/30 04:23:31;;;;;;;2.30;1.88;;;;;;;7.62;90.96;98002.59;5033910;28;20260;-78
2023/12/30 04:26:00;;;;;;;4.00;2.05;;;;;;;7.55;91.17;97998.97;5062792;28;20224;-78
2023/12/30 04:28:27;;;;;;;1.80;1.70;;;;;;;7.64;91.41;98005.13;5040318;28;20291;-79
2023/12/30 04:30:54;;;;;;;3.55;1.70;;;;;;;7.73;90.77;98004.03;5007736;28;20200;-79
2023/12/30 04:33:21;;;;;;;1.80;1.65;;;;;;;7.77;89.74;97994.56;5037558;28;20204;-80
2023/12/30 04:35:48;;;;;;;2.17;1.80;;;;;;;7.80;90.16;98004.94;5023483;28;20305;-80
2023/12/30 04:38:18;;;;;;;2.70;1.80;;;;;;;7.88;89.87;98012.09;5038149;28;20280;-80
2023/12/30 04:40:46;;;;;;;1.80;1.70;;;;;;;7.82;90.25;98008.28;5038936;28;20245;-81
2023/12/30 04:43:12;;;;;;;1.70;1.60;;;;;;;7.83;90.25;98020.72;5011694;28;20287;-81
2023/12/30 04:45:39;;;;;;;2.53;1.60;;;;;;;7.70;89.99;98007.09;5039385;28;20246;-80
2023/12/30 04:48:06;;;;;;;4.22;1.90;;;;;;;7.72;90.29;98007.72;5023985;28;20236;-81
2023/12/30 04:50:33;;;;;;;2.00;1.80;;;;;;;7.70;90.24;98012.47;5040081;28;20201;-81
2023/12/30 04:52:59;;;;;;;3.13;2.05;;;;;;;7.61;90.07;98021.66;5021428;28;20198;-80
2023/12/30 04:55:26;;;;;;;2.20;2.00;;;;;;;7.62;89.95;98020.63;5019311;28;20201;-80
2023/12/30 04:57:55;;;;;;;2.35;2.15;;;;;;;7.67;90.04;98021.75;5037532;28;20255;-81
2023/12/30 05:00:23;;;;;;;2.25;2.05;;;;;;;7.69;90.06;98019.72;5037952;28;20229;-81
2023/12/30 05:02:49;;;;;;;3.25;2.03;;;;;;;7.62;90.18;98010.69;5013594;28;20249;-81
2023/12/30 05:05:16;;;;;;;1.98;1.80;;;;;;;7.68;90.12;98023.44;5033451;28;20210;-81
2023/12/30 05:07:43;;;;;;;2.50;2.00;;;;;;;7.71;89.53;98011.44;5040036;28;20713;-81
2023/12/30 05:10:10;;;;;;;3.50;2.25;;;;;;;7.65;89.42;97996.03;5054921;28;20708;-80
2023/12/30 05:12:36;;;;;;;3.15;2.03;;;;;;;7.71;89.16;98014.97;5052637;28;20206;-80
2023/12/30 05:15:06;;;;;;;4.13;2.42;;;;;;;7.74;89.01;98013.78;5035685;28;20245;-81
2023/12/30 05:17:35;;;;;;;1.90;1.70;;;;;;;7.68;89.36;98006.44;5040507;28;20203;-80
2023/12/30 05:20:02;;;;;;;2.80;2.00;;;;;;;7.63;89.10;98012.38;5039820;28;20216;-80
2023/12/30 05:22:29;;;;;;;2.30;2.10;;;;;;;7.63;89.10;98015.06;5042141;28;20233;-80
2023/12/30 05:24:56;;;;;;;2.15;1.95;;;;;;;7.70;89.22;98012.47;5021738;28;20201;-81
2023/12/30 05:27:23;;;;;;;1.63;1.52;;;;;;;7.73;88.84;98001.31;5042132;28;20260;-80
2023/12/30 05:29:50;;;;;;;1.90;1.80;;;;;;;7.79;88.45;97997.06;5041767;28;20583;-80
2023/12/30 05:32:18;;;;;;;2.10;1.90;;;;;;;7.78;88.41;97996.22;5040470;28;20329;-80
2023/12/30 05:34:45;;;;;;;1.85;1.65;;;;;;;7.73;88.32;97987.84;5036806;28;20209;-80
2023/12/30 05:37:11;;;;;;;2.40;1.52;;;;;;;7.78;88.04;97992.69;5021800;28;20208;-80
2023/12/30 05:39:38;;;;;;;2.10;1.65;;;;;;;7.75;88.13;97991.22;5038876;28;20296;-81
2023/12/30 05:42:05;;;;;;;1.70;1.60;;;;;;;7.67;88.20;98004.75;5024373;28;20742;-81
2023/12/30 05:44:32;;;;;;;1.92;1.77;;;;;;;7.75;87.54;98008.19;5037626;28;20373;-80
2023/12/30 05:46:59;;;;;;;1.90;1.70;;;;;;;7.47;88.16;97987.47;5020596;28;20269;-80
2023/12/30 05:49:27;;;;;;;1.70;1.60;;;;;;;7.61;88.34;98006.31;5022622;28;20198;-80
2023/12/30 05:51:54;;;;;;;2.78;1.73;;;;;;;7.65;87.94;98012.19;5038645;28;20267;-80
2023/12/30 05:54:20;;;;;;;2.35;1.40;;;;;;;7.65;87.85;97994.16;5038059;28;20280;-81
2023/12/30 05:56:47;;;;;;;1.58;1.40;;;;;;;7.78;87.40;98007.00;5037931;28;20186;-80
2023/12/30 05:59:13;;;;;;;1.75;1.60;;;;;;;7.72;87.41;98013.13;5038999;28;20284;-80
2023/12/30 06:01:45;;;;;;;2.10;1.83;;;;;;;7.65;87.66;98015.72;5037376;28;20213;-80
2023/12/30 06:04:13;;;;;;;2.55;1.58;;;;;;;7.64;87.71;98018.59;5033529;28;20208;-81
2023/12/30 06:06:41;;;;;;;1.50;1.40;;;;;;;7.58;88.26;98022.84;5040038;28;20650;-81
2023/12/30 06:09:09;;;;;;;1.98;1.70;;;;;;;7.61;88.25;98024.34;5038695;28;20191;-80
2023/12/30 06:11:35;;;;;;;1.90;1.70;;;;;;;7.71;88.08;98024.91;5023081;28;20210;-80
2023/12/30 06:14:02;;;;;;;1.95;1.60;;;;;;;7.70;87.96;98015.16;5018329;28;20201;-80
2023/12/30 06:16:29;;;;;;;2.03;1.70;;;;;;;7.87;87.39;98015.81;5021406;28;20208;-80
2023/12/30 06:18:55;;;;;;;5.07;1.60;;;;;;;7.71;87.78;98016.84;5038221;28;20206;-80
2023/12/30 06:21:24;;;;;;;1.98;1.67;;;;;;;7.65;88.28;98031.88;5040049;28;20222;-81
2023/12/30 06:23:52;;;;;;;2.05;1.40;;;;;;;7.82;87.84;98029.00;5043304;28;20258;-80
2023/12/30 06:26:19;;;;;;;2.45;1.67;;;;;;;7.75;88.13;98028.91;5027157;28;20297;-80
2023/12/30 06:28:46;;;;;;;1.70;1.60;;;;;;;7.81;88.35;98036.22;5043468;28;20213;-80
2023/12/30 06:31:16;;;;;;;2.10;1.40;;;;;;;7.87;87.46;98031.97;5050787;28;20217;-79
2023/12/30 06:33:44;;;;;;;1.70;1.50;;;;;;;7.86;87.08;98039.22;5042959;28;20190;-78
2023/12/30 06:36:12;;;;;;;2.03;1.38;;;;;;;7.86;87.21;98041.91;5058942;28;20206;-79
2023/12/30 06:38:39;;;;;;;2.97;1.40;;;;;;;7.87;86.94;98048.97;5036059;28;20201;-79
2023/12/30 06:41:11;;;;;;;2.40;1.40;;;;;;;7.88;86.89;98042.56;5039255;28;20232;-76
2023/12/30 06:43:38;;;;;;;1.65;1.20;;;;;;;7.85;86.61;98040.25;5043753;28;20252;-77
2023/12/30 06:46:05;;;;;;;1.30;1.20;;;;;;;7.91;85.87;98042.19;5041574;28;20198;-77
2023/12/30 06:48:32;;;;;;;1.50;1.33;;;;;;;7.94;86.12;98049.91;5009534;28;20198;-76
2023/12/30 06:51:01;;;;;;;3.50;1.30;;;;;;;8.00;85.89;98054.56;4995940;28;20548;-77
2023/12/30 06:53:30;;;;;;;1.90;1.50;;;;;;;7.96;86.26;98064.03;5040823;28;20266;-77
2023/12/30 06:56:00;;;;;;;1.80;1.27;;;;;;;7.85;86.17;98059.09;5054576;28;20221;-77
2023/12/30 06:58:28;;;;;;;2.95;1.55;;;;;;;7.94;86.32;98066.09;5040881;28;20201;-77
2023/12/30 07:00:55;;;;;;;2.13;1.27;;;;;;;7.99;85.63;98074.44;5038485;28;20221;-77
2023/12/30 07:03:25;;;;;;;1.52;1.20;;;;;;;8.01;85.08;98067.03;5042151;28;20259;-78
2023/12/30 07:05:52;;;;;;;1.20;1.10;;;;;;;8.09;84.85;98076.88;5039014;28;20193;-78
2023/12/30 07:08:19;;;;;;;1.50;1.10;;;;;;;7.93;84.49;98052.78;5034171;28;20212;-77
2023/12/30 07:10:46;;;;;;;1.55;1.17;;;;;;;8.12;84.65;98072.97;5041885;28;20236;-78
2023/12/30 07:13:12;;;;;;;1.23;0.90;;;;;;;8.01;84.82;98069.72;5024822;28;20663;-78
2023/12/30 07:15:42;;;;;;;1.30;1.13;;;;;;;8.03;84.77;98064.97;5040260;28;20214;-78
2023/12/30 07:18:08;;;;;;;1.88;1.02;;;;;;;8.14;85.13;98070.91;5055943;28;20634;-76
2023/12/30 07:20:35;;;;;;;2.00;0.98;;;;;;;8.09;85.00;98064.25;5039611;28;20302;-71
2023/12/30 07:23:04;;;;;;;1.70;1.00;;;;;;;8.05;85.41;98068.31;5041226;28;20220;-77
2023/12/30 07:25:32;;;;;;;1.70;1.08;;;;;;;8.07;85.66;98068.16;5036519;28;20208;-78
2023/12/30 07:27:59;;;;;;;1.35;1.00;;;;;;;7.94;85.61;98038.31;5056378;28;20201;-78
2023/12/30 07:30:28;;;;;;;1.45;1.00;;;;;;;8.14;85.72;98068.22;5021502;28;20663;-78
2023/12/30 07:33:00;;;;;;;2.55;1.13;;;;;;;8.08;85.88;98072.50;5012803;28;20205;-79
2023/12/30 07:35:28;;;;;;;2.30;1.20;;;;;;;7.92;86.97;98073.50;5032295;28;20651;-78
2023/12/30 07:37:55;;;;;;;1.70;1.08;;;;;;;7.99;86.54;98087.09;5039941;28;20212;-78
2023/12/30 07:40:21;;;;;;;1.35;1.25;;;;;;;8.00;86.83;98081.53;5038420;28;20283;-78
2023/12/30 07:42:48;;;;;;;1.40;1.30;;;;;;;8.08;86.40;98080.59;5038409;28;20202;-78
2023/12/30 07:45:16;;;;;;;1.70;1.20;;;;;;;8.17;86.19;98084.03;5037386;28;20241;-78
2023/12/30 07:47:43;;;;;;;1.40;1.30;;;;;;;8.23;85.74;98080.59;5038450;28;20193;-78
2023/12/30 07:50:11;;;;;;;1.20;1.10;;;;;;;8.21;86.12;98091.56;5039947;28;21061;-78
2023/12/30 07:52:38;;;;;;;1.40;1.30;;;;;;;8.41;85.36;98100.81;5017940;28;20198;-79
2023/12/30 07:55:06;;;;;;;1.92;1.83;;;;;;;8.32;85.62;98090.25;5031701;28;20660;-80
2023/12/30 07:57:35;;;;;;;2.00;1.80;;;;;;;8.56;85.03;98094.53;5035371;28;20206;-77
2023/12/30 08:00:01;;;;;;;1.40;1.10;;;;;;;8.77;84.23;98095.41;5033343;28;20202;-78
2023/12/30 08:02:29;;;;;;;1.55;1.42;;;;;;;8.74;84.77;98095.00;5033620;28;20220;-79
2023/12/30 08:04:57;;;;;;;1.40;1.30;;;;;;;8.55;84.69;98092.88;5024308;28;20738;-79
2023/12/30 08:07:26;;;;;;;1.45;1.35;;;;;;;8.65;84.58;98102.34;5037663;28;20209;-79
2023/12/30 08:09:53;;;;;;;1.80;1.50;;;;;;;8.62;84.66;98108.13;5037981;28;20656;-78
2023/12/30 08:12:20;;;;;;;1.38;1.27;;;;;;;8.44;84.83;98104.16;5031831;28;20193;-79
2023/12/30 08:14:47;;;;;;;1.73;1.30;;;;;;;8.31;84.82;98102.06;5008229;28;20197;-77
2023/12/30 08:17:14;;;;;;;2.67;1.63;;;;;;;8.46;84.39;98102.91;5035960;28;20235;-78
2023/12/30 08:19:40;;;;;;;1.40;1.13;;;;;;;8.54;84.39;98110.91;5030375;28;20200;-79
2023/12/30 08:22:07;;;;;;;2.13;1.60;;;;;;;8.57;83.77;98104.31;5036206;28;20228;-73
2023/12/30 08:24:36;;;;;;;1.92;1.83;;;;;;;8.70;83.69;98108.03;5032404;28;20314;-72
2023/12/30 08:27:02;;;;;;;3.05;1.45;;;;;;;8.56;83.54;98108.88;5002651;28;20198;-73
2023/12/30 08:29:28;;;;;;;3.35;1.65;;;;;;;8.44;84.11;98113.06;5022509;28;20551;-73
2023/12/30 08:31:54;;;;;;;1.83;1.53;;;;;;;8.59;83.77;98113.06;5033594;28;20193;-73
2023/12/30 08:34:21;;;;;;;1.63;1.35;;;;;;;8.62;84.27;98115.38;5037591;28;20570;-72
2023/12/30 08:36:48;;;;;;;2.15;1.70;;;;;;;8.79;84.32;98118.69;5035591;28;20214;-73
2023/12/30 08:39:16;;;;;;;3.33;2.03;;;;;;;8.57;85.02;98126.72;5035219;28;20205;-73
2023/12/30 08:41:44;;;;;;;2.20;1.80;;;;;;;8.33;86.49;98129.72;5036700;28;20279;-73
2023/12/30 08:44:11;;;;;;;2.35;2.15;;;;;;;8.33;88.05;98119.75;5029792;28;20211;-72
2023/12/30 08:46:37;;;;;;;3.28;2.80;;;;;;;8.25;88.07;98127.91;5031778;28;20664;-72
2023/12/30 08:49:04;;;;;;;2.17;1.98;;;;;;;8.04;90.10;98115.16;5011367;28;20210;-72
2023/12/30 08:51:32;;;;;;;2.67;2.47;;;;;;;8.21;90.23;98123.06;5022938;28;20836;-69
2023/12/30 08:54:00;;;;;;;2.17;2.08;;;;;;;8.26;90.47;98129.59;5022013;28;20284;-72
2023/12/30 08:56:31;;;;;;;1.90;1.80;;;;;;;8.18;90.67;98118.88;5035592;28;20280;-71
2023/12/30 08:59:00;;;;;;;2.10;1.95;;;;;;;8.21;89.86;98121.22;5034929;28;20240;-72
2023/12/30 09:01:27;;;;;;;2.38;2.08;;;;;;;8.21;89.38;98131.16;5029909;28;20217;-71
2023/12/30 09:03:54;;;;;;;2.22;1.75;;;;;;;8.20;88.61;98121.38;5011442;28;20202;-71
2023/12/30 09:06:21;;;;;;;2.38;1.83;;;;;;;8.02;88.62;98103.72;5006353;28;20206;-75
2023/12/30 09:08:47;;;;;;;1.70;1.60;;;;;;;8.17;88.57;98119.06;5030447;28;20194;-74
2023/12/30 09:11:20;;;;;;;1.58;1.48;;;;;;;8.21;87.81;98114.97;5036525;28;20272;-73
2023/12/30 09:13:46;;;;;;;1.65;1.50;;;;;;;8.24;87.89;98122.69;5035541;28;20679;-73
2023/12/30 09:16:14;;;;;;;1.67;1.58;;;;;;;8.36;87.08;98115.88;5034605;28;20237;-74
2023/12/30 09:18:42;;;;;;;2.45;1.75;;;;;;;8.53;86.50;98124.59;5031828;28;20243;-72
2023/12/30 09:21:10;;;;;;;1.65;1.45;;;;;;;8.73;86.39;98120.31;5037139;28;20305;-74
2023/12/30 09:23:37;;;;;;;2.03;1.55;;;;;;;8.45;87.10;98116.63;5033105;28;20236;-74
2023/12/30 09:26:04;;;;;;;1.52;1.30;;;;;;;8.54;86.50;98121.69;5038448;28;20714;-74
2023/12/30 09:28:30;;;;;;;1.60;1.50;;;;;;;8.60;86.62;98126.34;5034013;28;20205;-74
2023/12/30 09:30:57;;;;;;;1.83;1.50;;;;;;;8.56;86.72;98119.66;5025630;28;20197;-74
2023/12/30 09:33:25;;;;;;;1.70;1.58;;;;;;;8.75;86.42;98129.88;5031787;28;20251;-75
2023/12/30 09:35:54;;;;;;;1.77;1.50;;;;;;;8.86;84.79;98131.25;5019427;28;20288;-75
2023/12/30 09:38:23;;;;;;;1.35;1.20;;;;;;;8.77;84.95;98128.84;5031474;28;20701;-75
2023/12/30 09:40:50;;;;;;;2.67;1.33;;;;;;;8.80;84.90;98125.75;5027261;28;20212;-74
2023/12/30 09:43:22;;;;;;;1.90;1.30;;;;;;;9.02;85.03;98135.59;5035566;28;20213;-75
2023/12/30 09:45:50;;;;;;;2.03;1.80;;;;;;;9.03;83.76;98121.91;5035800;28;20205;-75
2023/12/30 09:48:18;;;;;;;1.30;1.20;;;;;;;9.39;82.71;98129.97;4988754;28;20209;-74
2023/12/30 09:50:46;;;;;;;2.47;1.38;;;;;;;10.30;79.14;98136.38;5012900;28;20686;-74
2023/12/30 09:53:13;;;;;;;1.75;1.20;;;;;;;10.76;76.89;98139.34;5014451;28;20205;-74
2023/12/30 09:55:40;;;;;;;1.30;1.20;;;;;;;11.14;74.90;98133.44;5032433;28;20206;-75
2023/12/30 09:58:06;;;;;;;5.25;1.80;;;;;;;11.93;72.98;98135.50;5038648;28;20205;-75
2023/12/30 10:00:35;;;;;;;3.43;1.40;;;;;;;12.30;70.57;98131.31;5032712;28;20206;-75
2023/12/30 10:03:02;;;;;;;1.80;1.60;;;;;;;12.40;68.20;98128.97;5032417;28;20699;-75
2023/12/30 10:05:29;;;;;;;2.80;1.30;;;;;;;12.47;68.07;98124.38;5040070;28;20731;-75
2023/12/30 10:07:58;;;;;;;1.67;1.10;;;;;;;12.13;66.81;98130.91;5054650;28;20678;-75
2023/12/30 10:10:36;;;;;;;1.50;1.40;;;;;;;12.04;67.67;98140.28;5034961;28;20724;-76
2023/12/30 10:13:03;;;;;;;1.10;1.00;;;;;;;12.19;65.85;98131.94;5035713;28;20632;-75
2023/12/30 10:15:29;;;;;;;3.10;2.23;;;;;;;12.34;63.96;98130.69;5034184;28;20735;-74
2023/12/30 10:17:56;;;;;;;1.60;1.40;;;;;;;12.39;63.51;98124.59;5025707;28;20627;-76
2023/12/30 10:20:23;;;;;;;1.80;1.10;;;;;;;12.29;64.70;98129.66;5006742;28;20685;-74
2023/12/30 10:22:51;;;;;;;1.43;1.00;;;;;;;12.22;62.76;98126.09;5020057;28;20803;-77
2023/12/30 10:25:20;;;;;;;0.80;0.70;;;;;;;11.89;63.24;98135.09;5027276;28;20728;-71
2023/12/30 10:27:48;;;;;;;2.63;0.90;;;;;;;11.59;62.57;98136.50;5033149;28;20718;-69
2023/12/30 10:30:16;;;;;;;1.37;1.00;;;;;;;11.45;63.30;98131.03;5033481;28;20723;-69
2023/12/30 10:32:43;;;;;;;1.50;0.90;;;;;;;11.57;62.76;98127.72;5036363;28;20629;-69
2023/12/30 10:35:10;;;;;;;1.30;0.90;;;;;;;11.54;61.41;98150.66;5034432;28;20736;-70
2023/12/30 10:37:37;;;;;;;1.80;0.90;;;;;;;11.88;60.41;98130.72;5034284;28;20645;-70
2023/12/30 10:40:07;;;;;;;1.00;0.80;;;;;;;11.63;60.80;98133.16;5035313;28;20718;-70
2023/12/30 10:42:40;;;;;;;2.10;0.90;;;;;;;11.53;60.15;98111.03;5030898;28;20652;-70
2023/12/30 10:45:08;;;;;;;3.17;0.90;;;;;;;11.52;60.27;98112.09;5022728;28;21300;-70
2023/12/30 10:47:39;;;;;;;1.43;0.90;;;;;;;11.58;59.23;98124.81;5031613;28;20620;-70
2023/12/30 10:50:09;;;;;;;1.90;1.00;;;;;;;11.49;60.00;98114.38;5028559;28;20643;-69
2023/12/30 10:52:44;;;;;;;1.53;1.10;;;;;;;11.62;59.55;98126.06;5007635;28;20641;-70
2023/12/30 10:55:12;;;;;;;1.53;0.70;;;;;;;11.72;59.07;98114.81;5033024;28;20623;-70
2023/12/30 10:57:46;;;;;;;1.60;1.10;;;;;;;12.14;57.89;98110.88;5033964;28;20636;-70
2023/12/30 11:00:14;;;;;;;1.20;0.80;;;;;;;12.17;57.56;98115.88;5031792;28;20642;-70
2023/12/30 11:02:42;;;;;;;2.20;1.00;;;;;;;11.86;58.31;98116.53;5029763;28;20661;-70
2023/12/30 11:05:12;;;;;;;1.90;1.17;;;;;;;12.15;57.91;98109.00;5020292;28;20636;-71
2023/12/30 11:07:39;;;;;;;2.83;1.10;;;;;;;12.41;57.22;98109.78;5035685;28;20668;-71
2023/12/30 11:10:16;;;;;;;1.30;0.90;;;;;;;12.53;55.89;98114.56;5031809;28;21256;-71
2023/12/30 11:12:45;;;;;;;1.33;0.93;;;;;;;12.74;55.31;98103.41;5033934;28;20628;-71
2023/12/30 11:15:25;;;;;;;1.87;1.10;;;;;;;13.10;54.41;98105.56;5036918;28;20662;-71
2023/12/30 11:17:52;;;;;;;1.20;1.00;;;;;;;12.65;54.04;98102.00;5018878;28;21240;-71
2023/12/30 11:20:24;;;;;;;1.27;0.80;;;;;;;12.61;53.94;98103.47;5033797;28;20639;-72
2023/12/30 11:22:52;;;;;;;2.07;0.90;;;;;;;12.74;54.04;98087.97;5035215;28;20655;-71
2023/12/30 11:25:19;;;;;;;1.80;1.00;;;;;;;12.62;54.23;98088.84;5035136;28;20644;-71
2023/12/30 11:27:49;;;;;;;1.30;0.87;;;;;;;12.44;54.37;98094.94;5020525;28;20663;-71
2023/12/30 11:30:17;;;;;;;1.50;1.37;;;;;;;12.13;54.91;98100.22;5016028;28;20746;-70
2023/12/30 11:32:45;;;;;;;3.33;1.87;;;;;;;12.44;55.60;98087.63;5038401;28;20707;-71
2023/12/30 11:35:13;;;;;;;1.57;1.10;;;;;;;12.37;54.29;98085.97;5019669;28;20634;-71
2023/12/30 11:37:45;;;;;;;1.90;0.97;;;;;;;12.92;53.77;98078.28;5034849;28;20977;-71
2023/12/30 11:40:19;;;;;;;1.83;1.13;;;;;;;13.34;53.19;98074.94;5051275;28;20632;-71
2023/12/30 11:42:46;;;;;;;1.37;0.80;;;;;;;13.37;52.66;98077.22;5031817;28;20652;-71